Ana Sayfa
METAR-TAF:

METAR-TAF

Havaalanları :

Funchal, Madeira, Portekiz

Enlem: 32-41-52N, Boylam: 016-46-28W, yükseklik: 59 m

Güncel hava durumu gözlemi

Rapor saat 01:00 UTC de 43 dakika önce yapıldı.
Rüzgar kuzeybatıdan 6 kt
Sıcaklık 20°C
Nem 78%
Basınç 1021 hPa
Görüş mesafesi 10 km veya daha fazla
1500 m altında bulut yok ve kümülonimbus yok

METAR: LPMA 230100Z 32006KT CAVOK 20/16 Q1021

Saat: 02:43 (01:43 UTC)

Tahmin

Rapor saat 23:00 UTC de 2 saat ve 43 dakika önce yapıldı.
Ayın 23'si saat 00 UTC'den ayın 23'si saat 24 UTC'ye kadar geçerli Tahmin
Rüzgar değişken yönden 5 kt
Görüş mesafesi 10 km veya daha fazla
1500 ft yükseklikte parçalı bulutlu
Dönüşüyor
ayın 23'si saat 09 UTC'den ayın 23'si saat 12 UTC'ye kadar
Rüzgar kuzey/kuzeydoğudan 10 kt

TAF: LPMA 222300Z 2300/2324 VRB05KT 9999 SCT015 BECMG 2309/2312 03010KT

4.000'den fazla havaalanı için hava durumu gözlemleri ve tahminleri (METAR ve TAF raporları).

Kullanılabilir istasyonlar harita üzerinde sarı ve kırmızı noktalarla gösterilir.

İstasyonun adını görmek için fareyi noktanın üzerinde gezdirin.

Sonrasında hava gözlem ve tahminlerini görmek için tıklayın.

Haritayı değiştirmek için: yaklaştırmak için siyah artı işaretli yeşil düğmeye ve uzaklaştırmak için de eksi işaretli düğmeye hızla tıklayın; bitişik haritalar için yeşil okları kullanın.


METAR-TAF: